sensor_id;sensor_type;location;lat;lon;timestamp;temperature;humidity
61641;HTU21D;62201;49.966;8.342;2022-12-07T00:01:22;3.83;97.52
61641;HTU21D;62201;49.966;8.342;2022-12-07T00:03:49;3.84;97.47
61641;HTU21D;62201;49.966;8.342;2022-12-07T00:06:16;3.83;97.35
61641;HTU21D;62201;49.966;8.342;2022-12-07T00:08:43;3.82;97.49
61641;HTU21D;62201;49.966;8.342;2022-12-07T00:11:21;3.80;97.50
61641;HTU21D;62201;49.966;8.342;2022-12-07T00:13:50;3.79;97.49
61641;HTU21D;62201;49.966;8.342;2022-12-07T00:16:17;3.80;96.85
61641;HTU21D;62201;49.966;8.342;2022-12-07T00:18:44;3.82;96.71
61641;HTU21D;62201;49.966;8.342;2022-12-07T00:21:18;3.80;96.88
61641;HTU21D;62201;49.966;8.342;2022-12-07T00:23:45;3.82;96.52
61641;HTU21D;62201;49.966;8.342;2022-12-07T00:26:16;3.83;96.62
61641;HTU21D;62201;49.966;8.342;2022-12-07T00:28:53;3.80;96.86
61641;HTU21D;62201;49.966;8.342;2022-12-07T00:31:21;3.79;97.10
61641;HTU21D;62201;49.966;8.342;2022-12-07T00:33:47;3.77;97.36
61641;HTU21D;62201;49.966;8.342;2022-12-07T00:36:17;3.72;97.53
61641;HTU21D;62201;49.966;8.342;2022-12-07T00:38:43;3.69;97.98
61641;HTU21D;62201;49.966;8.342;2022-12-07T00:41:20;3.64;97.77
61641;HTU21D;62201;49.966;8.342;2022-12-07T00:43:47;3.63;97.97
61641;HTU21D;62201;49.966;8.342;2022-12-07T00:46:13;3.62;98.08
61641;HTU21D;62201;49.966;8.342;2022-12-07T00:48:39;3.59;98.11
61641;HTU21D;62201;49.966;8.342;2022-12-07T00:51:05;3.58;98.21
61641;HTU21D;62201;49.966;8.342;2022-12-07T00:53:34;3.58;98.55
61641;HTU21D;62201;49.966;8.342;2022-12-07T00:56:14;3.57;98.66
61641;HTU21D;62201;49.966;8.342;2022-12-07T00:58:39;3.57;98.53
61641;HTU21D;62201;49.966;8.342;2022-12-07T01:01:07;3.60;98.14
61641;HTU21D;62201;49.966;8.342;2022-12-07T01:03:33;3.58;98.29
61641;HTU21D;62201;49.966;8.342;2022-12-07T01:05:59;3.59;98.31
61641;HTU21D;62201;49.966;8.342;2022-12-07T01:08:25;3.53;98.61
61641;HTU21D;62201;49.966;8.342;2022-12-07T01:11:05;3.52;98.44
61641;HTU21D;62201;49.966;8.342;2022-12-07T01:13:32;3.49;98.84
61641;HTU21D;62201;49.966;8.342;2022-12-07T01:15:59;3.44;99.05
61641;HTU21D;62201;49.966;8.342;2022-12-07T01:18:27;3.42;98.95
61641;HTU21D;62201;49.966;8.342;2022-12-07T01:21:13;3.40;99.42
61641;HTU21D;62201;49.966;8.342;2022-12-07T01:23:39;3.40;99.53
61641;HTU21D;62201;49.966;8.342;2022-12-07T01:26:07;3.38;99.62
61641;HTU21D;62201;49.966;8.342;2022-12-07T01:28:34;3.38;99.64
61641;HTU21D;62201;49.966;8.342;2022-12-07T01:31:03;3.38;99.77
61641;HTU21D;62201;49.966;8.342;2022-12-07T01:33:32;3.39;99.85
61641;HTU21D;62201;49.966;8.342;2022-12-07T01:36:05;3.40;99.93
61641;HTU21D;62201;49.966;8.342;2022-12-07T01:38:31;3.42;99.90
61641;HTU21D;62201;49.966;8.342;2022-12-07T01:40:58;3.39;99.98
61641;HTU21D;62201;49.966;8.342;2022-12-07T01:43:24;3.40;100.10
61641;HTU21D;62201;49.966;8.342;2022-12-07T01:45:50;3.42;100.12
61641;HTU21D;62201;49.966;8.342;2022-12-07T01:48:18;3.41;100.03
61641;HTU21D;62201;49.966;8.342;2022-12-07T01:50:48;3.42;99.90
61641;HTU21D;62201;49.966;8.342;2022-12-07T01:53:14;3.43;99.73
61641;HTU21D;62201;49.966;8.342;2022-12-07T01:55:42;3.43;99.72
61641;HTU21D;62201;49.966;8.342;2022-12-07T01:58:10;3.42;99.87
61641;HTU21D;62201;49.966;8.342;2022-12-07T02:00:36;3.42;99.77
61641;HTU21D;62201;49.966;8.342;2022-12-07T02:05:31;3.44;99.55
61641;HTU21D;62201;49.966;8.342;2022-12-07T02:07:58;3.46;99.48
61641;HTU21D;62201;49.966;8.342;2022-12-07T02:10:26;3.48;99.55
61641;HTU21D;62201;49.966;8.342;2022-12-07T02:12:56;3.47;99.52
61641;HTU21D;62201;49.966;8.342;2022-12-07T02:15:32;3.48;99.63
61641;HTU21D;62201;49.966;8.342;2022-12-07T02:20:52;3.52;99.65
61641;HTU21D;62201;49.966;8.342;2022-12-07T02:32:11;3.49;101.54
61641;HTU21D;62201;49.966;8.342;2022-12-07T02:34:56;3.50;102.09
61641;HTU21D;62201;49.966;8.342;2022-12-07T02:37:39;3.50;101.96
61641;HTU21D;62201;49.966;8.342;2022-12-07T02:42:43;3.49;102.21
61641;HTU21D;62201;49.966;8.342;2022-12-07T02:45:13;3.50;102.24
61641;HTU21D;62201;49.966;8.342;2022-12-07T02:47:40;3.50;102.30
61641;HTU21D;62201;49.966;8.342;2022-12-07T02:50:07;3.54;102.38
61641;HTU21D;62201;49.966;8.342;2022-12-07T02:52:32;3.54;102.38
61641;HTU21D;62201;49.966;8.342;2022-12-07T02:54:58;3.55;102.79
61641;HTU21D;62201;49.966;8.342;2022-12-07T03:00:20;3.58;102.57
61641;HTU21D;62201;49.966;8.342;2022-12-07T03:03:00;3.59;102.55
61641;HTU21D;62201;49.966;8.342;2022-12-07T03:11:02;3.60;102.23
61641;HTU21D;62201;49.966;8.342;2022-12-07T03:13:48;3.61;102.44
61641;HTU21D;62201;49.966;8.342;2022-12-07T03:16:20;3.61;102.44
61641;HTU21D;62201;49.966;8.342;2022-12-07T03:21:21;3.64;102.25
61641;HTU21D;62201;49.966;8.342;2022-12-07T03:23:52;3.67;101.89
61641;HTU21D;62201;49.966;8.342;2022-12-07T03:26:21;3.68;101.98
61641;HTU21D;62201;49.966;8.342;2022-12-07T03:28:53;3.68;102.15
61641;HTU21D;62201;49.966;8.342;2022-12-07T03:31:29;3.68;102.22
61641;HTU21D;62201;49.966;8.342;2022-12-07T03:34:23;3.69;102.28
61641;HTU21D;62201;49.966;8.342;2022-12-07T03:37:15;3.69;102.35
61641;HTU21D;62201;49.966;8.342;2022-12-07T03:39:49;3.70;101.67
61641;HTU21D;62201;49.966;8.342;2022-12-07T03:42:18;3.71;102.09
61641;HTU21D;62201;49.966;8.342;2022-12-07T03:44:44;3.72;102.13
61641;HTU21D;62201;49.966;8.342;2022-12-07T03:47:47;3.74;101.93
61641;HTU21D;62201;49.966;8.342;2022-12-07T03:50:36;3.76;101.94
61641;HTU21D;62201;49.966;8.342;2022-12-07T03:54:05;3.78;101.64
61641;HTU21D;62201;49.966;8.342;2022-12-07T03:56:10;3.80;101.64
61641;HTU21D;62201;49.966;8.342;2022-12-07T03:58:45;3.82;101.61
61641;HTU21D;62201;49.966;8.342;2022-12-07T04:01:11;3.84;101.57
61641;HTU21D;62201;49.966;8.342;2022-12-07T04:03:36;3.86;101.51
61641;HTU21D;62201;49.966;8.342;2022-12-07T04:06:02;3.86;101.54
61641;HTU21D;62201;49.966;8.342;2022-12-07T04:08:27;3.89;101.51
61641;HTU21D;62201;49.966;8.342;2022-12-07T04:10:53;3.90;101.49
61641;HTU21D;62201;49.966;8.342;2022-12-07T04:13:18;3.90;101.70
61641;HTU21D;62201;49.966;8.342;2022-12-07T04:15:43;3.91;101.70
61641;HTU21D;62201;49.966;8.342;2022-12-07T04:18:09;3.92;101.70
61641;HTU21D;62201;49.966;8.342;2022-12-07T04:20:34;3.94;101.44
61641;HTU21D;62201;49.966;8.342;2022-12-07T04:23:00;3.95;101.37
61641;HTU21D;62201;49.966;8.342;2022-12-07T04:25:25;3.97;101.61
61641;HTU21D;62201;49.966;8.342;2022-12-07T04:27:50;3.97;101.45
61641;HTU21D;62201;49.966;8.342;2022-12-07T04:30:16;3.98;101.25
61641;HTU21D;62201;49.966;8.342;2022-12-07T04:32:41;4.00;101.51
61641;HTU21D;62201;49.966;8.342;2022-12-07T04:35:07;4.00;101.57
61641;HTU21D;62201;49.966;8.342;2022-12-07T04:37:33;4.03;101.61
61641;HTU21D;62201;49.966;8.342;2022-12-07T04:39:58;4.05;101.65
61641;HTU21D;62201;49.966;8.342;2022-12-07T04:42:24;4.06;101.64
61641;HTU21D;62201;49.966;8.342;2022-12-07T04:44:49;4.09;101.59
61641;HTU21D;62201;49.966;8.342;2022-12-07T04:47:16;4.09;101.68
61641;HTU21D;62201;49.966;8.342;2022-12-07T04:49:41;4.10;101.68
61641;HTU21D;62201;49.966;8.342;2022-12-07T04:52:06;4.10;101.64
61641;HTU21D;62201;49.966;8.342;2022-12-07T04:54:32;4.13;101.55
61641;HTU21D;62201;49.966;8.342;2022-12-07T04:56:57;4.12;101.38
61641;HTU21D;62201;49.966;8.342;2022-12-07T04:59:22;4.14;101.31
61641;HTU21D;62201;49.966;8.342;2022-12-07T05:01:48;4.16;101.38
61641;HTU21D;62201;49.966;8.342;2022-12-07T05:04:13;4.17;101.47
61641;HTU21D;62201;49.966;8.342;2022-12-07T05:06:41;4.20;100.87
61641;HTU21D;62201;49.966;8.342;2022-12-07T05:09:06;4.22;101.04
61641;HTU21D;62201;49.966;8.342;2022-12-07T05:11:32;4.22;100.59
61641;HTU21D;62201;49.966;8.342;2022-12-07T05:14:06;4.26;100.36
61641;HTU21D;62201;49.966;8.342;2022-12-07T05:16:32;4.23;100.15
61641;HTU21D;62201;49.966;8.342;2022-12-07T05:18:57;4.24;100.45
61641;HTU21D;62201;49.966;8.342;2022-12-07T05:21:23;4.24;100.58
61641;HTU21D;62201;49.966;8.342;2022-12-07T05:23:48;4.26;100.52
61641;HTU21D;62201;49.966;8.342;2022-12-07T05:26:14;4.26;100.41
61641;HTU21D;62201;49.966;8.342;2022-12-07T05:28:39;4.28;99.70
61641;HTU21D;62201;49.966;8.342;2022-12-07T05:31:05;4.27;99.80
61641;HTU21D;62201;49.966;8.342;2022-12-07T05:33:30;4.28;99.87
61641;HTU21D;62201;49.966;8.342;2022-12-07T05:35:56;4.28;99.84
61641;HTU21D;62201;49.966;8.342;2022-12-07T05:38:21;4.28;100.03
61641;HTU21D;62201;49.966;8.342;2022-12-07T05:40:46;4.30;100.32
61641;HTU21D;62201;49.966;8.342;2022-12-07T05:43:12;4.35;100.35
61641;HTU21D;62201;49.966;8.342;2022-12-07T05:45:37;4.37;100.19
61641;HTU21D;62201;49.966;8.342;2022-12-07T05:48:03;4.36;99.84
61641;HTU21D;62201;49.966;8.342;2022-12-07T05:50:28;4.38;99.74
61641;HTU21D;62201;49.966;8.342;2022-12-07T05:52:54;4.39;99.90
61641;HTU21D;62201;49.966;8.342;2022-12-07T05:55:19;4.43;99.34
61641;HTU21D;62201;49.966;8.342;2022-12-07T05:57:44;4.49;98.26
61641;HTU21D;62201;49.966;8.342;2022-12-07T06:00:30;4.54;98.41
61641;HTU21D;62201;49.966;8.342;2022-12-07T06:02:55;4.59;97.80
61641;HTU21D;62201;49.966;8.342;2022-12-07T06:05:21;4.64;96.91
61641;HTU21D;62201;49.966;8.342;2022-12-07T06:07:46;4.69;95.40
61641;HTU21D;62201;49.966;8.342;2022-12-07T06:10:11;4.72;95.78
61641;HTU21D;62201;49.966;8.342;2022-12-07T06:12:37;4.74;94.91
61641;HTU21D;62201;49.966;8.342;2022-12-07T06:15:05;4.73;95.39
61641;HTU21D;62201;49.966;8.342;2022-12-07T06:17:31;4.74;95.20
61641;HTU21D;62201;49.966;8.342;2022-12-07T06:19:57;4.76;94.64
61641;HTU21D;62201;49.966;8.342;2022-12-07T06:22:22;4.75;94.63
61641;HTU21D;62201;49.966;8.342;2022-12-07T06:24:47;4.72;95.26
61641;HTU21D;62201;49.966;8.342;2022-12-07T06:27:13;4.75;94.40
61641;HTU21D;62201;49.966;8.342;2022-12-07T06:29:38;4.73;94.94
61641;HTU21D;62201;49.966;8.342;2022-12-07T06:32:04;4.71;95.37
61641;HTU21D;62201;49.966;8.342;2022-12-07T06:34:30;4.71;95.22
61641;HTU21D;62201;49.966;8.342;2022-12-07T06:36:56;4.71;95.29
61641;HTU21D;62201;49.966;8.342;2022-12-07T06:39:23;4.69;95.63
61641;HTU21D;62201;49.966;8.342;2022-12-07T06:41:49;4.74;94.89
61641;HTU21D;62201;49.966;8.342;2022-12-07T06:44:16;4.73;95.01
61641;HTU21D;62201;49.966;8.342;2022-12-07T06:46:42;4.73;94.94
61641;HTU21D;62201;49.966;8.342;2022-12-07T06:49:07;4.73;94.56
61641;HTU21D;62201;49.966;8.342;2022-12-07T06:51:33;4.74;94.53
61641;HTU21D;62201;49.966;8.342;2022-12-07T06:54:02;4.75;94.53
61641;HTU21D;62201;49.966;8.342;2022-12-07T06:56:28;4.75;94.36
61641;HTU21D;62201;49.966;8.342;2022-12-07T06:58:54;4.73;94.78
61641;HTU21D;62201;49.966;8.342;2022-12-07T07:01:19;4.69;94.85
61641;HTU21D;62201;49.966;8.342;2022-12-07T07:03:45;4.67;95.13
61641;HTU21D;62201;49.966;8.342;2022-12-07T07:06:12;4.69;94.81
61641;HTU21D;62201;49.966;8.342;2022-12-07T07:08:38;4.73;94.63
61641;HTU21D;62201;49.966;8.342;2022-12-07T07:11:05;4.69;94.77
61641;HTU21D;62201;49.966;8.342;2022-12-07T07:13:30;4.66;95.16
61641;HTU21D;62201;49.966;8.342;2022-12-07T07:15:56;4.63;95.53
61641;HTU21D;62201;49.966;8.342;2022-12-07T07:18:21;4.63;95.58
61641;HTU21D;62201;49.966;8.342;2022-12-07T07:20:47;4.63;95.77
61641;HTU21D;62201;49.966;8.342;2022-12-07T07:23:12;4.65;95.61
61641;HTU21D;62201;49.966;8.342;2022-12-07T07:25:38;4.65;95.56
61641;HTU21D;62201;49.966;8.342;2022-12-07T07:28:03;4.68;95.30
61641;HTU21D;62201;49.966;8.342;2022-12-07T07:30:29;4.67;95.46
61641;HTU21D;62201;49.966;8.342;2022-12-07T07:33:01;4.67;95.59
61641;HTU21D;62201;49.966;8.342;2022-12-07T07:35:29;4.66;95.94
61641;HTU21D;62201;49.966;8.342;2022-12-07T07:37:54;4.68;96.10
61641;HTU21D;62201;49.966;8.342;2022-12-07T07:40:20;4.68;96.11
61641;HTU21D;62201;49.966;8.342;2022-12-07T07:42:50;4.68;96.22
61641;HTU21D;62201;49.966;8.342;2022-12-07T07:45:16;4.71;96.18
61641;HTU21D;62201;49.966;8.342;2022-12-07T07:47:42;4.73;95.93
61641;HTU21D;62201;49.966;8.342;2022-12-07T07:50:07;4.77;95.61
61641;HTU21D;62201;49.966;8.342;2022-12-07T07:52:33;4.80;95.84
61641;HTU21D;62201;49.966;8.342;2022-12-07T07:54:58;4.84;94.99
61641;HTU21D;62201;49.966;8.342;2022-12-07T07:57:24;4.92;94.99
61641;HTU21D;62201;49.966;8.342;2022-12-07T07:59:49;4.93;95.35
61641;HTU21D;62201;49.966;8.342;2022-12-07T08:02:17;4.97;94.81
61641;HTU21D;62201;49.966;8.342;2022-12-07T08:04:44;5.01;94.64
61641;HTU21D;62201;49.966;8.342;2022-12-07T08:07:11;5.02;94.75
61641;HTU21D;62201;49.966;8.342;2022-12-07T08:09:37;5.07;94.20
61641;HTU21D;62201;49.966;8.342;2022-12-07T08:12:03;5.07;94.06
61641;HTU21D;62201;49.966;8.342;2022-12-07T08:14:29;5.08;94.07
61641;HTU21D;62201;49.966;8.342;2022-12-07T08:16:54;5.08;94.10
61641;HTU21D;62201;49.966;8.342;2022-12-07T08:19:20;5.08;93.94
61641;HTU21D;62201;49.966;8.342;2022-12-07T08:21:46;5.07;93.46
61641;HTU21D;62201;49.966;8.342;2022-12-07T08:24:11;5.03;93.62
61641;HTU21D;62201;49.966;8.342;2022-12-07T08:26:37;4.98;93.88
61641;HTU21D;62201;49.966;8.342;2022-12-07T08:29:02;5.01;93.59
61641;HTU21D;62201;49.966;8.342;2022-12-07T08:31:28;5.02;93.57
61641;HTU21D;62201;49.966;8.342;2022-12-07T08:33:54;5.02;93.46
61641;HTU21D;62201;49.966;8.342;2022-12-07T08:36:19;5.03;93.54
61641;HTU21D;62201;49.966;8.342;2022-12-07T08:38:46;5.02;93.50
61641;HTU21D;62201;49.966;8.342;2022-12-07T08:41:12;4.98;93.91
61641;HTU21D;62201;49.966;8.342;2022-12-07T08:43:37;4.93;94.16
61641;HTU21D;62201;49.966;8.342;2022-12-07T08:46:10;4.91;94.30
61641;HTU21D;62201;49.966;8.342;2022-12-07T08:48:39;4.96;94.28
61641;HTU21D;62201;49.966;8.342;2022-12-07T08:51:06;5.01;94.30
61641;HTU21D;62201;49.966;8.342;2022-12-07T08:53:32;5.09;93.88
61641;HTU21D;62201;49.966;8.342;2022-12-07T08:55:59;5.26;94.06
61641;HTU21D;62201;49.966;8.342;2022-12-07T08:58:25;5.39;92.48
61641;HTU21D;62201;49.966;8.342;2022-12-07T09:00:50;5.53;92.80
61641;HTU21D;62201;49.966;8.342;2022-12-07T09:03:16;5.69;91.88
61641;HTU21D;62201;49.966;8.342;2022-12-07T09:05:41;5.68;90.94
61641;HTU21D;62201;49.966;8.342;2022-12-07T09:08:07;5.74;90.56
61641;HTU21D;62201;49.966;8.342;2022-12-07T09:10:33;5.84;91.39
61641;HTU21D;62201;49.966;8.342;2022-12-07T09:12:58;5.91;91.01
61641;HTU21D;62201;49.966;8.342;2022-12-07T09:15:27;5.83;89.90
61641;HTU21D;62201;49.966;8.342;2022-12-07T09:17:52;5.81;89.22
61641;HTU21D;62201;49.966;8.342;2022-12-07T09:20:18;5.71;89.88
61641;HTU21D;62201;49.966;8.342;2022-12-07T09:22:43;5.67;90.24
61641;HTU21D;62201;49.966;8.342;2022-12-07T09:25:09;5.60;89.66
61641;HTU21D;62201;49.966;8.342;2022-12-07T09:27:34;5.60;89.99
61641;HTU21D;62201;49.966;8.342;2022-12-07T09:29:59;5.70;88.64
61641;HTU21D;62201;49.966;8.342;2022-12-07T09:32:25;5.95;89.49
61641;HTU21D;62201;49.966;8.342;2022-12-07T09:34:50;6.30;87.62
61641;HTU21D;62201;49.966;8.342;2022-12-07T09:37:15;6.61;87.55
61641;HTU21D;62201;49.966;8.342;2022-12-07T09:39:41;6.93;86.18
61641;HTU21D;62201;49.966;8.342;2022-12-07T09:42:07;6.97;85.80
61641;HTU21D;62201;49.966;8.342;2022-12-07T09:44:34;7.12;85.03
61641;HTU21D;62201;49.966;8.342;2022-12-07T09:47:00;7.28;84.29
61641;HTU21D;62201;49.966;8.342;2022-12-07T09:49:29;7.37;83.10
61641;HTU21D;62201;49.966;8.342;2022-12-07T09:54:45;6.94;83.93
61641;HTU21D;62201;49.966;8.342;2022-12-07T09:57:11;6.58;85.13
61641;HTU21D;62201;49.966;8.342;2022-12-07T09:59:38;6.51;85.80
61641;HTU21D;62201;49.966;8.342;2022-12-07T10:02:34;7.11;85.16
61641;HTU21D;62201;49.966;8.342;2022-12-07T10:05:00;7.05;82.64
61641;HTU21D;62201;49.966;8.342;2022-12-07T10:07:26;6.89;83.10
61641;HTU21D;62201;49.966;8.342;2022-12-07T10:09:51;6.83;81.74
61641;HTU21D;62201;49.966;8.342;2022-12-07T10:12:17;6.69;81.59
61641;HTU21D;62201;49.966;8.342;2022-12-07T10:14:59;6.55;81.02
61641;HTU21D;62201;49.966;8.342;2022-12-07T10:17:31;6.46;81.21
61641;HTU21D;62201;49.966;8.342;2022-12-07T10:20:19;6.46;81.27
61641;HTU21D;62201;49.966;8.342;2022-12-07T10:23:05;6.53;82.09
61641;HTU21D;62201;49.966;8.342;2022-12-07T10:25:37;6.58;81.17
61641;HTU21D;62201;49.966;8.342;2022-12-07T10:28:17;6.54;81.69
61641;HTU21D;62201;49.966;8.342;2022-12-07T10:30:51;6.50;81.08
61641;HTU21D;62201;49.966;8.342;2022-12-07T10:33:34;6.54;82.10
61641;HTU21D;62201;49.966;8.342;2022-12-07T10:36:09;6.90;80.19
61641;HTU21D;62201;49.966;8.342;2022-12-07T10:38:45;6.83;80.88
61641;HTU21D;62201;49.966;8.342;2022-12-07T10:41:10;6.83;81.71
61641;HTU21D;62201;49.966;8.342;2022-12-07T10:43:36;6.70;80.62
61641;HTU21D;62201;49.966;8.342;2022-12-07T10:46:33;6.57;79.62
61641;HTU21D;62201;49.966;8.342;2022-12-07T10:54:41;7.07;77.50
61641;HTU21D;62201;49.966;8.342;2022-12-07T10:57:47;7.61;75.22
61641;HTU21D;62201;49.966;8.342;2022-12-07T11:00:22;7.89;72.41
61641;HTU21D;62201;49.966;8.342;2022-12-07T11:08:57;8.74;70.47
61641;HTU21D;62201;49.966;8.342;2022-12-07T11:11:35;8.78;72.45
61641;HTU21D;62201;49.966;8.342;2022-12-07T11:16:55;8.29;70.97
61641;HTU21D;62201;49.966;8.342;2022-12-07T11:19:42;7.96;71.64
61641;HTU21D;62201;49.966;8.342;2022-12-07T11:25:18;7.55;73.25
61641;HTU21D;62201;49.966;8.342;2022-12-07T11:33:46;9.22;68.82
61641;HTU21D;62201;49.966;8.342;2022-12-07T11:36:38;9.42;66.59
61641;HTU21D;62201;49.966;8.342;2022-12-07T11:39:23;9.55;66.27
61641;HTU21D;62201;49.966;8.342;2022-12-07T11:41:56;9.74;63.63
61641;HTU21D;62201;49.966;8.342;2022-12-07T11:44:55;9.49;63.36
61641;HTU21D;62201;49.966;8.342;2022-12-07T11:49:54;9.17;63.56
61641;HTU21D;62201;49.966;8.342;2022-12-07T11:52:45;9.18;64.76
61641;HTU21D;62201;49.966;8.342;2022-12-07T11:58:14;9.19;63.71
61641;HTU21D;62201;49.966;8.342;2022-12-07T12:00:43;8.94;64.42
61641;HTU21D;62201;49.966;8.342;2022-12-07T12:03:21;8.53;65.38
61641;HTU21D;62201;49.966;8.342;2022-12-07T12:05:48;8.19;66.86
61641;HTU21D;62201;49.966;8.342;2022-12-07T12:08:22;7.93;67.84
61641;HTU21D;62201;49.966;8.342;2022-12-07T12:11:04;7.75;69.16
61641;HTU21D;62201;49.966;8.342;2022-12-07T12:13:50;7.64;69.66
61641;HTU21D;62201;49.966;8.342;2022-12-07T12:21:37;7.24;72.07
61641;HTU21D;62201;49.966;8.342;2022-12-07T12:24:17;7.15;73.12
61641;HTU21D;62201;49.966;8.342;2022-12-07T12:26:53;7.03;73.80
61641;HTU21D;62201;49.966;8.342;2022-12-07T12:29:37;6.99;74.22
61641;HTU21D;62201;49.966;8.342;2022-12-07T12:32:19;7.05;73.55
61641;HTU21D;62201;49.966;8.342;2022-12-07T12:37:52;7.27;73.57
61641;HTU21D;62201;49.966;8.342;2022-12-07T12:42:48;7.65;72.96
61641;HTU21D;62201;49.966;8.342;2022-12-07T12:45:27;7.86;71.87
61641;HTU21D;62201;49.966;8.342;2022-12-07T12:50:47;8.06;70.62
61641;HTU21D;62201;49.966;8.342;2022-12-07T12:53:25;8.03;68.87
61641;HTU21D;62201;49.966;8.342;2022-12-07T12:56:26;7.99;68.88
61641;HTU21D;62201;49.966;8.342;2022-12-07T12:59:55;7.83;69.54
61641;HTU21D;62201;49.966;8.342;2022-12-07T13:01:55;7.72;69.65
61641;HTU21D;62201;49.966;8.342;2022-12-07T13:04:23;7.59;69.70
61641;HTU21D;62201;49.966;8.342;2022-12-07T13:06:49;7.64;69.93
61641;HTU21D;62201;49.966;8.342;2022-12-07T13:09:27;7.60;68.86
61641;HTU21D;62201;49.966;8.342;2022-12-07T13:12:03;7.61;70.46
61641;HTU21D;62201;49.966;8.342;2022-12-07T13:14:54;7.61;69.45
61641;HTU21D;62201;49.966;8.342;2022-12-07T13:20:05;7.52;69.11
61641;HTU21D;62201;49.966;8.342;2022-12-07T13:25:33;7.52;69.09
61641;HTU21D;62201;49.966;8.342;2022-12-07T13:28:09;7.53;68.12
61641;HTU21D;62201;49.966;8.342;2022-12-07T13:30:45;7.60;69.13
61641;HTU21D;62201;49.966;8.342;2022-12-07T13:33:11;7.58;68.65
61641;HTU21D;62201;49.966;8.342;2022-12-07T13:35:37;7.59;67.81
61641;HTU21D;62201;49.966;8.342;2022-12-07T13:38:15;7.61;67.67
61641;HTU21D;62201;49.966;8.342;2022-12-07T13:40:42;7.65;67.08
61641;HTU21D;62201;49.966;8.342;2022-12-07T13:43:15;7.68;67.16
61641;HTU21D;62201;49.966;8.342;2022-12-07T13:45:41;7.69;66.95
61641;HTU21D;62201;49.966;8.342;2022-12-07T13:48:28;7.73;66.82
61641;HTU21D;62201;49.966;8.342;2022-12-07T13:50:56;7.75;66.75
61641;HTU21D;62201;49.966;8.342;2022-12-07T13:53:22;7.79;67.29
61641;HTU21D;62201;49.966;8.342;2022-12-07T13:55:49;7.75;66.83
61641;HTU21D;62201;49.966;8.342;2022-12-07T13:58:14;7.70;67.09
61641;HTU21D;62201;49.966;8.342;2022-12-07T14:00:41;7.63;67.49
61641;HTU21D;62201;49.966;8.342;2022-12-07T14:05:40;7.52;67.90
61641;HTU21D;62201;49.966;8.342;2022-12-07T14:15:51;7.28;69.93
61641;HTU21D;62201;49.966;8.342;2022-12-07T14:21:15;7.28;70.48
61641;HTU21D;62201;49.966;8.342;2022-12-07T14:23:42;7.30;70.67
61641;HTU21D;62201;49.966;8.342;2022-12-07T14:26:14;7.29;71.71
61641;HTU21D;62201;49.966;8.342;2022-12-07T14:28:41;7.25;71.38
61641;HTU21D;62201;49.966;8.342;2022-12-07T14:31:15;7.20;71.93
61641;HTU21D;62201;49.966;8.342;2022-12-07T14:33:41;7.16;72.13
61641;HTU21D;62201;49.966;8.342;2022-12-07T14:36:11;7.14;72.62
61641;HTU21D;62201;49.966;8.342;2022-12-07T14:38:37;7.11;73.15
61641;HTU21D;62201;49.966;8.342;2022-12-07T14:41:04;7.05;74.09
61641;HTU21D;62201;49.966;8.342;2022-12-07T14:43:49;6.97;75.09
61641;HTU21D;62201;49.966;8.342;2022-12-07T14:46:14;6.90;76.00
61641;HTU21D;62201;49.966;8.342;2022-12-07T14:48:39;6.82;76.83
61641;HTU21D;62201;49.966;8.342;2022-12-07T14:51:05;6.72;77.25
61641;HTU21D;62201;49.966;8.342;2022-12-07T14:53:35;6.63;78.08
61641;HTU21D;62201;49.966;8.342;2022-12-07T14:56:03;6.59;78.04
61641;HTU21D;62201;49.966;8.342;2022-12-07T14:58:30;6.53;79.74
61641;HTU21D;62201;49.966;8.342;2022-12-07T15:00:56;6.55;78.18
61641;HTU21D;62201;49.966;8.342;2022-12-07T15:03:21;6.59;78.13
61641;HTU21D;62201;49.966;8.342;2022-12-07T15:05:47;6.59;77.71
61641;HTU21D;62201;49.966;8.342;2022-12-07T15:08:12;6.60;77.79
61641;HTU21D;62201;49.966;8.342;2022-12-07T15:10:38;6.56;77.76
61641;HTU21D;62201;49.966;8.342;2022-12-07T15:13:05;6.54;78.41
61641;HTU21D;62201;49.966;8.342;2022-12-07T15:15:51;6.49;78.96
61641;HTU21D;62201;49.966;8.342;2022-12-07T15:18:17;6.40;79.75
61641;HTU21D;62201;49.966;8.342;2022-12-07T15:20:43;6.34;79.41
61641;HTU21D;62201;49.966;8.342;2022-12-07T15:23:10;6.29;79.16
61641;HTU21D;62201;49.966;8.342;2022-12-07T15:25:35;6.24;79.18
61641;HTU21D;62201;49.966;8.342;2022-12-07T15:28:01;6.20;80.33
61641;HTU21D;62201;49.966;8.342;2022-12-07T15:30:27;6.11;82.58
61641;HTU21D;62201;49.966;8.342;2022-12-07T15:32:53;5.96;85.02
61641;HTU21D;62201;49.966;8.342;2022-12-07T15:35:19;5.85;86.48
61641;HTU21D;62201;49.966;8.342;2022-12-07T15:37:45;5.77;87.98
61641;HTU21D;62201;49.966;8.342;2022-12-07T15:40:11;5.69;88.42
61641;HTU21D;62201;49.966;8.342;2022-12-07T15:42:37;5.63;88.61
61641;HTU21D;62201;49.966;8.342;2022-12-07T15:45:04;5.56;89.43
61641;HTU21D;62201;49.966;8.342;2022-12-07T15:47:38;5.49;89.78
61641;HTU21D;62201;49.966;8.342;2022-12-07T15:50:06;5.42;90.50
61641;HTU21D;62201;49.966;8.342;2022-12-07T15:52:32;5.36;90.36
61641;HTU21D;62201;49.966;8.342;2022-12-07T15:54:57;5.31;90.72
61641;HTU21D;62201;49.966;8.342;2022-12-07T15:57:25;5.30;91.00
61641;HTU21D;62201;49.966;8.342;2022-12-07T15:59:50;5.27;90.73
61641;HTU21D;62201;49.966;8.342;2022-12-07T16:02:16;5.28;91.13
61641;HTU21D;62201;49.966;8.342;2022-12-07T16:04:41;5.28;90.82
61641;HTU21D;62201;49.966;8.342;2022-12-07T16:07:07;5.28;91.29
61641;HTU21D;62201;49.966;8.342;2022-12-07T16:09:33;5.28;91.07
61641;HTU21D;62201;49.966;8.342;2022-12-07T16:11:58;5.25;91.29
61641;HTU21D;62201;49.966;8.342;2022-12-07T16:14:23;5.22;91.40
61641;HTU21D;62201;49.966;8.342;2022-12-07T16:16:49;5.17;92.02
61641;HTU21D;62201;49.966;8.342;2022-12-07T16:19:14;5.12;91.66
61641;HTU21D;62201;49.966;8.342;2022-12-07T16:21:40;5.07;92.08
61641;HTU21D;62201;49.966;8.342;2022-12-07T16:24:06;5.02;91.65
61641;HTU21D;62201;49.966;8.342;2022-12-07T16:26:32;4.92;92.17
61641;HTU21D;62201;49.966;8.342;2022-12-07T16:28:57;4.86;92.59
61641;HTU21D;62201;49.966;8.342;2022-12-07T16:31:25;4.82;92.79
61641;HTU21D;62201;49.966;8.342;2022-12-07T16:33:53;4.78;93.16
61641;HTU21D;62201;49.966;8.342;2022-12-07T16:36:20;4.76;93.63
61641;HTU21D;62201;49.966;8.342;2022-12-07T16:38:47;4.69;93.69
61641;HTU21D;62201;49.966;8.342;2022-12-07T16:41:13;4.71;94.14
61641;HTU21D;62201;49.966;8.342;2022-12-07T16:43:39;4.72;94.22
61641;HTU21D;62201;49.966;8.342;2022-12-07T16:46:05;4.69;94.15
61641;HTU21D;62201;49.966;8.342;2022-12-07T16:48:30;4.72;94.53
61641;HTU21D;62201;49.966;8.342;2022-12-07T16:50:56;4.72;94.17
61641;HTU21D;62201;49.966;8.342;2022-12-07T16:53:23;4.72;94.26
61641;HTU21D;62201;49.966;8.342;2022-12-07T16:55:50;4.71;94.23
61641;HTU21D;62201;49.966;8.342;2022-12-07T16:58:16;4.72;94.40
61641;HTU21D;62201;49.966;8.342;2022-12-07T17:00:43;4.71;94.90
61641;HTU21D;62201;49.966;8.342;2022-12-07T17:03:09;4.69;95.29
61641;HTU21D;62201;49.966;8.342;2022-12-07T17:05:40;4.69;95.34
61641;HTU21D;62201;49.966;8.342;2022-12-07T17:08:06;4.68;96.98
61641;HTU21D;62201;49.966;8.342;2022-12-07T17:10:34;4.64;96.68
61641;HTU21D;62201;49.966;8.342;2022-12-07T17:13:02;4.58;96.55